sensor_id;sensor_type;location;lat;lon;timestamp;P1;durP1;ratioP1;P2;durP2;ratioP2
74064;SDS011;62421;51.412;5.432;2023-06-10T00:01:50;10.93;;;7.40;;
74064;SDS011;62421;51.412;5.432;2023-06-10T00:04:15;8.43;;;5.60;;
74064;SDS011;62421;51.412;5.432;2023-06-10T00:06:42;13.73;;;6.38;;
74064;SDS011;62421;51.412;5.432;2023-06-10T00:09:14;9.45;;;6.30;;
74064;SDS011;62421;51.412;5.432;2023-06-10T00:11:40;8.87;;;5.83;;
74064;SDS011;62421;51.412;5.432;2023-06-10T00:14:07;8.50;;;5.78;;
74064;SDS011;62421;51.412;5.432;2023-06-10T00:16:33;11.15;;;5.90;;
74064;SDS011;62421;51.412;5.432;2023-06-10T00:18:59;11.45;;;6.15;;
74064;SDS011;62421;51.412;5.432;2023-06-10T00:21:26;15.50;;;6.73;;
74064;SDS011;62421;51.412;5.432;2023-06-10T00:23:55;10.48;;;6.82;;
74064;SDS011;62421;51.412;5.432;2023-06-10T00:26:21;10.43;;;5.50;;
74064;SDS011;62421;51.412;5.432;2023-06-10T00:28:47;11.95;;;6.45;;
74064;SDS011;62421;51.412;5.432;2023-06-10T00:31:13;14.43;;;6.73;;
74064;SDS011;62421;51.412;5.432;2023-06-10T00:33:38;11.90;;;5.17;;
74064;SDS011;62421;51.412;5.432;2023-06-10T00:36:04;9.63;;;6.57;;
74064;SDS011;62421;51.412;5.432;2023-06-10T00:38:29;15.68;;;6.32;;
74064;SDS011;62421;51.412;5.432;2023-06-10T00:40:55;14.37;;;6.50;;
74064;SDS011;62421;51.412;5.432;2023-06-10T00:43:21;9.25;;;6.22;;
74064;SDS011;62421;51.412;5.432;2023-06-10T00:45:46;10.37;;;5.90;;
74064;SDS011;62421;51.412;5.432;2023-06-10T00:48:11;12.83;;;6.50;;
74064;SDS011;62421;51.412;5.432;2023-06-10T00:50:37;16.00;;;6.80;;
74064;SDS011;62421;51.412;5.432;2023-06-10T00:53:05;10.77;;;6.22;;
74064;SDS011;62421;51.412;5.432;2023-06-10T00:55:32;10.23;;;6.53;;
74064;SDS011;62421;51.412;5.432;2023-06-10T00:57:58;11.18;;;7.07;;
74064;SDS011;62421;51.412;5.432;2023-06-10T01:00:24;9.95;;;6.53;;
74064;SDS011;62421;51.412;5.432;2023-06-10T01:02:49;12.47;;;7.30;;
74064;SDS011;62421;51.412;5.432;2023-06-10T01:05:17;10.93;;;6.43;;
74064;SDS011;62421;51.412;5.432;2023-06-10T01:07:56;8.55;;;6.25;;
74064;SDS011;62421;51.412;5.432;2023-06-10T01:12:59;11.52;;;6.82;;
74064;SDS011;62421;51.412;5.432;2023-06-10T01:15:33;10.93;;;6.75;;
74064;SDS011;62421;51.412;5.432;2023-06-10T01:18:01;12.50;;;6.63;;
74064;SDS011;62421;51.412;5.432;2023-06-10T01:20:29;16.15;;;6.63;;
74064;SDS011;62421;51.412;5.432;2023-06-10T01:22:57;10.65;;;7.18;;
74064;SDS011;62421;51.412;5.432;2023-06-10T01:25:23;11.60;;;6.93;;
74064;SDS011;62421;51.412;5.432;2023-06-10T01:30:22;11.40;;;6.43;;
74064;SDS011;62421;51.412;5.432;2023-06-10T01:32:54;10.68;;;6.80;;
74064;SDS011;62421;51.412;5.432;2023-06-10T01:35:20;15.30;;;7.63;;
74064;SDS011;62421;51.412;5.432;2023-06-10T01:37:49;9.35;;;7.20;;
74064;SDS011;62421;51.412;5.432;2023-06-10T01:40:18;15.13;;;7.00;;
74064;SDS011;62421;51.412;5.432;2023-06-10T01:42:44;12.88;;;8.48;;
74064;SDS011;62421;51.412;5.432;2023-06-10T01:45:09;11.40;;;7.20;;
74064;SDS011;62421;51.412;5.432;2023-06-10T01:47:35;11.60;;;6.82;;
74064;SDS011;62421;51.412;5.432;2023-06-10T01:50:00;13.03;;;7.90;;
74064;SDS011;62421;51.412;5.432;2023-06-10T01:52:26;13.27;;;7.90;;
74064;SDS011;62421;51.412;5.432;2023-06-10T01:54:51;12.73;;;7.33;;
74064;SDS011;62421;51.412;5.432;2023-06-10T01:57:16;13.17;;;7.00;;
74064;SDS011;62421;51.412;5.432;2023-06-10T01:59:42;15.80;;;8.40;;
74064;SDS011;62421;51.412;5.432;2023-06-10T02:02:09;13.60;;;7.78;;
74064;SDS011;62421;51.412;5.432;2023-06-10T02:04:34;12.70;;;7.35;;
74064;SDS011;62421;51.412;5.432;2023-06-10T02:07:00;11.57;;;7.37;;
74064;SDS011;62421;51.412;5.432;2023-06-10T02:09:28;12.30;;;7.07;;
74064;SDS011;62421;51.412;5.432;2023-06-10T02:11:54;12.98;;;8.27;;
74064;SDS011;62421;51.412;5.432;2023-06-10T02:14:19;23.07;;;8.77;;
74064;SDS011;62421;51.412;5.432;2023-06-10T02:16:45;17.17;;;7.63;;
74064;SDS011;62421;51.412;5.432;2023-06-10T02:19:11;15.77;;;7.72;;
74064;SDS011;62421;51.412;5.432;2023-06-10T02:21:37;12.05;;;7.70;;
74064;SDS011;62421;51.412;5.432;2023-06-10T02:24:03;14.70;;;8.00;;
74064;SDS011;62421;51.412;5.432;2023-06-10T02:26:29;14.80;;;8.43;;
74064;SDS011;62421;51.412;5.432;2023-06-10T02:28:54;13.30;;;8.03;;
74064;SDS011;62421;51.412;5.432;2023-06-10T02:31:20;14.63;;;8.53;;
74064;SDS011;62421;51.412;5.432;2023-06-10T02:33:45;19.37;;;8.00;;
74064;SDS011;62421;51.412;5.432;2023-06-10T02:36:11;12.25;;;8.05;;
74064;SDS011;62421;51.412;5.432;2023-06-10T02:38:38;10.63;;;7.80;;
74064;SDS011;62421;51.412;5.432;2023-06-10T02:41:05;13.47;;;7.60;;
74064;SDS011;62421;51.412;5.432;2023-06-10T02:43:31;16.92;;;8.82;;
74064;SDS011;62421;51.412;5.432;2023-06-10T02:45:56;14.00;;;8.03;;
74064;SDS011;62421;51.412;5.432;2023-06-10T02:48:23;12.40;;;8.10;;
74064;SDS011;62421;51.412;5.432;2023-06-10T02:50:48;13.13;;;7.47;;
74064;SDS011;62421;51.412;5.432;2023-06-10T02:53:14;10.83;;;8.00;;
74064;SDS011;62421;51.412;5.432;2023-06-10T02:55:39;13.70;;;7.60;;
74064;SDS011;62421;51.412;5.432;2023-06-10T02:58:05;12.35;;;7.45;;
74064;SDS011;62421;51.412;5.432;2023-06-10T03:00:32;12.73;;;7.80;;
74064;SDS011;62421;51.412;5.432;2023-06-10T03:02:58;11.88;;;7.75;;
74064;SDS011;62421;51.412;5.432;2023-06-10T03:05:25;13.37;;;8.20;;
74064;SDS011;62421;51.412;5.432;2023-06-10T03:07:50;17.60;;;8.02;;
74064;SDS011;62421;51.412;5.432;2023-06-10T03:10:16;12.17;;;7.73;;
74064;SDS011;62421;51.412;5.432;2023-06-10T03:12:41;14.93;;;7.60;;
74064;SDS011;62421;51.412;5.432;2023-06-10T03:15:07;13.30;;;7.67;;
74064;SDS011;62421;51.412;5.432;2023-06-10T03:17:32;11.63;;;7.90;;
74064;SDS011;62421;51.412;5.432;2023-06-10T03:19:57;15.10;;;8.03;;
74064;SDS011;62421;51.412;5.432;2023-06-10T03:22:23;13.70;;;7.90;;
74064;SDS011;62421;51.412;5.432;2023-06-10T03:24:48;18.13;;;8.13;;
74064;SDS011;62421;51.412;5.432;2023-06-10T03:27:15;13.93;;;8.40;;
74064;SDS011;62421;51.412;5.432;2023-06-10T03:29:41;13.13;;;8.32;;
74064;SDS011;62421;51.412;5.432;2023-06-10T03:32:07;12.77;;;8.50;;
74064;SDS011;62421;51.412;5.432;2023-06-10T03:34:32;13.30;;;8.55;;
74064;SDS011;62421;51.412;5.432;2023-06-10T03:36:58;15.35;;;8.13;;
74064;SDS011;62421;51.412;5.432;2023-06-10T03:39:25;13.27;;;8.10;;
74064;SDS011;62421;51.412;5.432;2023-06-10T03:41:53;12.48;;;8.80;;
74064;SDS011;62421;51.412;5.432;2023-06-10T03:44:19;17.47;;;8.63;;
74064;SDS011;62421;51.412;5.432;2023-06-10T03:46:45;15.48;;;8.63;;
74064;SDS011;62421;51.412;5.432;2023-06-10T03:49:10;13.60;;;8.50;;
74064;SDS011;62421;51.412;5.432;2023-06-10T03:51:36;16.85;;;8.65;;
74064;SDS011;62421;51.412;5.432;2023-06-10T03:54:02;13.20;;;8.77;;
74064;SDS011;62421;51.412;5.432;2023-06-10T03:56:27;14.50;;;8.57;;
74064;SDS011;62421;51.412;5.432;2023-06-10T03:58:53;14.93;;;9.25;;
74064;SDS011;62421;51.412;5.432;2023-06-10T04:01:20;17.25;;;8.02;;
74064;SDS011;62421;51.412;5.432;2023-06-10T04:03:46;14.98;;;8.95;;
74064;SDS011;62421;51.412;5.432;2023-06-10T04:06:16;15.98;;;8.35;;
74064;SDS011;62421;51.412;5.432;2023-06-10T04:08:42;15.73;;;8.68;;
74064;SDS011;62421;51.412;5.432;2023-06-10T04:11:08;15.27;;;9.83;;
74064;SDS011;62421;51.412;5.432;2023-06-10T04:13:33;17.40;;;9.77;;
74064;SDS011;62421;51.412;5.432;2023-06-10T04:15:58;17.03;;;10.90;;
74064;SDS011;62421;51.412;5.432;2023-06-10T04:18:24;19.57;;;10.50;;
74064;SDS011;62421;51.412;5.432;2023-06-10T04:20:50;20.88;;;11.20;;
74064;SDS011;62421;51.412;5.432;2023-06-10T04:23:16;16.90;;;10.57;;
74064;SDS011;62421;51.412;5.432;2023-06-10T04:25:41;14.98;;;9.70;;
74064;SDS011;62421;51.412;5.432;2023-06-10T04:28:06;16.42;;;11.25;;
74064;SDS011;62421;51.412;5.432;2023-06-10T04:30:32;15.33;;;9.60;;
74064;SDS011;62421;51.412;5.432;2023-06-10T04:32:57;17.03;;;11.37;;
74064;SDS011;62421;51.412;5.432;2023-06-10T04:35:23;22.60;;;11.27;;
74064;SDS011;62421;51.412;5.432;2023-06-10T04:37:48;23.40;;;11.53;;
74064;SDS011;62421;51.412;5.432;2023-06-10T04:40:13;20.83;;;11.23;;
74064;SDS011;62421;51.412;5.432;2023-06-10T04:42:40;20.60;;;10.38;;
74064;SDS011;62421;51.412;5.432;2023-06-10T04:45:06;16.13;;;10.82;;
74064;SDS011;62421;51.412;5.432;2023-06-10T04:47:32;16.57;;;10.83;;
74064;SDS011;62421;51.412;5.432;2023-06-10T04:49:58;18.85;;;11.00;;
74064;SDS011;62421;51.412;5.432;2023-06-10T04:52:27;17.05;;;10.55;;
74064;SDS011;62421;51.412;5.432;2023-06-10T04:54:53;17.27;;;10.53;;
74064;SDS011;62421;51.412;5.432;2023-06-10T04:57:19;13.85;;;9.30;;
74064;SDS011;62421;51.412;5.432;2023-06-10T04:59:45;20.17;;;10.47;;
74064;SDS011;62421;51.412;5.432;2023-06-10T05:02:10;19.20;;;11.00;;
74064;SDS011;62421;51.412;5.432;2023-06-10T05:04:36;16.33;;;10.53;;
74064;SDS011;62421;51.412;5.432;2023-06-10T05:07:01;17.03;;;10.03;;
74064;SDS011;62421;51.412;5.432;2023-06-10T05:09:26;17.77;;;9.80;;
74064;SDS011;62421;51.412;5.432;2023-06-10T05:11:52;22.65;;;9.98;;
74064;SDS011;62421;51.412;5.432;2023-06-10T05:14:18;20.70;;;10.53;;
74064;SDS011;62421;51.412;5.432;2023-06-10T05:16:45;15.68;;;9.63;;
74064;SDS011;62421;51.412;5.432;2023-06-10T05:19:11;16.08;;;10.32;;
74064;SDS011;62421;51.412;5.432;2023-06-10T05:21:37;20.20;;;10.10;;
74064;SDS011;62421;51.412;5.432;2023-06-10T05:24:02;15.57;;;10.03;;
74064;SDS011;62421;51.412;5.432;2023-06-10T05:26:28;15.13;;;9.75;;
74064;SDS011;62421;51.412;5.432;2023-06-10T05:28:54;13.73;;;9.93;;
74064;SDS011;62421;51.412;5.432;2023-06-10T05:31:19;15.85;;;10.30;;
74064;SDS011;62421;51.412;5.432;2023-06-10T05:33:45;14.63;;;9.60;;
74064;SDS011;62421;51.412;5.432;2023-06-10T05:36:10;14.73;;;9.37;;
74064;SDS011;62421;51.412;5.432;2023-06-10T05:38:35;14.33;;;9.63;;
74064;SDS011;62421;51.412;5.432;2023-06-10T05:41:01;15.80;;;10.50;;
74064;SDS011;62421;51.412;5.432;2023-06-10T05:43:26;15.87;;;10.43;;
74064;SDS011;62421;51.412;5.432;2023-06-10T05:45:52;21.55;;;11.07;;
74064;SDS011;62421;51.412;5.432;2023-06-10T05:48:17;16.52;;;10.50;;
74064;SDS011;62421;51.412;5.432;2023-06-10T05:50:44;20.85;;;10.52;;
74064;SDS011;62421;51.412;5.432;2023-06-10T05:53:13;23.87;;;11.20;;
74064;SDS011;62421;51.412;5.432;2023-06-10T05:55:44;19.80;;;10.80;;
74064;SDS011;62421;51.412;5.432;2023-06-10T05:58:11;15.85;;;10.30;;
74064;SDS011;62421;51.412;5.432;2023-06-10T06:00:37;16.23;;;11.15;;
74064;SDS011;62421;51.412;5.432;2023-06-10T06:03:05;20.35;;;12.25;;
74064;SDS011;62421;51.412;5.432;2023-06-10T06:05:32;17.93;;;10.53;;
74064;SDS011;62421;51.412;5.432;2023-06-10T06:08:00;15.98;;;10.80;;
74064;SDS011;62421;51.412;5.432;2023-06-10T06:10:29;17.17;;;10.60;;
74064;SDS011;62421;51.412;5.432;2023-06-10T06:12:55;18.05;;;11.45;;
74064;SDS011;62421;51.412;5.432;2023-06-10T06:15:20;18.47;;;11.63;;
74064;SDS011;62421;51.412;5.432;2023-06-10T06:17:46;17.73;;;11.10;;
74064;SDS011;62421;51.412;5.432;2023-06-10T06:20:11;17.73;;;10.30;;
74064;SDS011;62421;51.412;5.432;2023-06-10T06:22:37;19.03;;;11.33;;
74064;SDS011;62421;51.412;5.432;2023-06-10T06:25:02;16.15;;;10.23;;
74064;SDS011;62421;51.412;5.432;2023-06-10T06:27:28;15.30;;;9.93;;
74064;SDS011;62421;51.412;5.432;2023-06-10T06:29:53;20.30;;;10.80;;
74064;SDS011;62421;51.412;5.432;2023-06-10T06:32:19;14.68;;;10.80;;
74064;SDS011;62421;51.412;5.432;2023-06-10T06:34:44;17.17;;;9.90;;
74064;SDS011;62421;51.412;5.432;2023-06-10T06:37:10;19.33;;;11.90;;
74064;SDS011;62421;51.412;5.432;2023-06-10T06:39:35;16.57;;;10.90;;
74064;SDS011;62421;51.412;5.432;2023-06-10T06:42:00;16.43;;;10.37;;
74064;SDS011;62421;51.412;5.432;2023-06-10T06:44:25;18.33;;;10.65;;
74064;SDS011;62421;51.412;5.432;2023-06-10T06:46:51;17.48;;;10.05;;
74064;SDS011;62421;51.412;5.432;2023-06-10T06:49:16;17.77;;;10.40;;
74064;SDS011;62421;51.412;5.432;2023-06-10T06:51:41;21.20;;;11.03;;
74064;SDS011;62421;51.412;5.432;2023-06-10T06:54:07;16.63;;;11.57;;
74064;SDS011;62421;51.412;5.432;2023-06-10T06:56:32;20.67;;;11.83;;
74064;SDS011;62421;51.412;5.432;2023-06-10T06:58:58;21.13;;;10.63;;
74064;SDS011;62421;51.412;5.432;2023-06-10T07:01:23;21.17;;;10.10;;
74064;SDS011;62421;51.412;5.432;2023-06-10T07:03:48;18.00;;;10.75;;
74064;SDS011;62421;51.412;5.432;2023-06-10T07:06:14;17.10;;;10.50;;
74064;SDS011;62421;51.412;5.432;2023-06-10T07:08:39;17.83;;;10.83;;
74064;SDS011;62421;51.412;5.432;2023-06-10T07:11:05;18.00;;;10.50;;
74064;SDS011;62421;51.412;5.432;2023-06-10T07:13:30;15.10;;;8.90;;
74064;SDS011;62421;51.412;5.432;2023-06-10T07:15:56;18.35;;;10.77;;
74064;SDS011;62421;51.412;5.432;2023-06-10T07:18:21;17.27;;;10.63;;
74064;SDS011;62421;51.412;5.432;2023-06-10T07:20:46;17.03;;;9.73;;
74064;SDS011;62421;51.412;5.432;2023-06-10T07:23:12;18.03;;;8.83;;
74064;SDS011;62421;51.412;5.432;2023-06-10T07:25:37;14.97;;;8.80;;
74064;SDS011;62421;51.412;5.432;2023-06-10T07:28:02;20.93;;;9.73;;
74064;SDS011;62421;51.412;5.432;2023-06-10T07:30:28;16.02;;;9.98;;
74064;SDS011;62421;51.412;5.432;2023-06-10T07:32:53;15.40;;;8.85;;
74064;SDS011;62421;51.412;5.432;2023-06-10T07:35:19;20.73;;;9.20;;
74064;SDS011;62421;51.412;5.432;2023-06-10T07:37:44;15.67;;;9.10;;
74064;SDS011;62421;51.412;5.432;2023-06-10T07:40:10;13.45;;;9.68;;
74064;SDS011;62421;51.412;5.432;2023-06-10T07:42:36;14.87;;;8.53;;
74064;SDS011;62421;51.412;5.432;2023-06-10T07:45:02;16.25;;;8.93;;
74064;SDS011;62421;51.412;5.432;2023-06-10T07:47:28;15.17;;;8.90;;
74064;SDS011;62421;51.412;5.432;2023-06-10T07:49:53;16.10;;;8.18;;
74064;SDS011;62421;51.412;5.432;2023-06-10T07:52:19;14.30;;;8.63;;
74064;SDS011;62421;51.412;5.432;2023-06-10T07:54:44;13.20;;;7.57;;
74064;SDS011;62421;51.412;5.432;2023-06-10T07:57:10;16.07;;;8.20;;
74064;SDS011;62421;51.412;5.432;2023-06-10T07:59:35;15.60;;;8.90;;
74064;SDS011;62421;51.412;5.432;2023-06-10T08:02:00;16.38;;;7.90;;
74064;SDS011;62421;51.412;5.432;2023-06-10T08:04:26;15.97;;;7.63;;
74064;SDS011;62421;51.412;5.432;2023-06-10T08:06:51;17.10;;;7.57;;
74064;SDS011;62421;51.412;5.432;2023-06-10T08:09:16;12.80;;;8.43;;
74064;SDS011;62421;51.412;5.432;2023-06-10T08:11:43;17.00;;;7.90;;
74064;SDS011;62421;51.412;5.432;2023-06-10T08:14:08;13.50;;;7.17;;
74064;SDS011;62421;51.412;5.432;2023-06-10T08:16:34;18.30;;;8.00;;
74064;SDS011;62421;51.412;5.432;2023-06-10T08:18:59;12.87;;;6.90;;
74064;SDS011;62421;51.412;5.432;2023-06-10T08:21:25;14.43;;;6.65;;
74064;SDS011;62421;51.412;5.432;2023-06-10T08:23:52;12.63;;;5.90;;
74064;SDS011;62421;51.412;5.432;2023-06-10T08:26:19;13.30;;;6.43;;
74064;SDS011;62421;51.412;5.432;2023-06-10T08:28:44;13.07;;;6.30;;
74064;SDS011;62421;51.412;5.432;2023-06-10T08:31:10;16.73;;;6.40;;
74064;SDS011;62421;51.412;5.432;2023-06-10T08:33:35;12.47;;;6.27;;
74064;SDS011;62421;51.412;5.432;2023-06-10T08:36:00;16.53;;;6.90;;
74064;SDS011;62421;51.412;5.432;2023-06-10T08:38:26;15.15;;;6.20;;
74064;SDS011;62421;51.412;5.432;2023-06-10T08:40:51;16.80;;;6.20;;
74064;SDS011;62421;51.412;5.432;2023-06-10T08:43:40;14.90;;;6.80;;
74064;SDS011;62421;51.412;5.432;2023-06-10T08:46:10;13.43;;;6.13;;
74064;SDS011;62421;51.412;5.432;2023-06-10T08:48:39;14.05;;;6.10;;
74064;SDS011;62421;51.412;5.432;2023-06-10T08:51:08;14.90;;;6.55;;
74064;SDS011;62421;51.412;5.432;2023-06-10T08:53:36;15.43;;;7.50;;
74064;SDS011;62421;51.412;5.432;2023-06-10T08:56:03;13.57;;;7.67;;
74064;SDS011;62421;51.412;5.432;2023-06-10T08:58:30;15.93;;;6.63;;
74064;SDS011;62421;51.412;5.432;2023-06-10T09:00:58;15.50;;;6.47;;
74064;SDS011;62421;51.412;5.432;2023-06-10T09:03:24;13.60;;;6.15;;
74064;SDS011;62421;51.412;5.432;2023-06-10T09:05:50;11.23;;;6.40;;
74064;SDS011;62421;51.412;5.432;2023-06-10T09:08:16;12.63;;;6.55;;
74064;SDS011;62421;51.412;5.432;2023-06-10T09:10:42;14.80;;;6.72;;
74064;SDS011;62421;51.412;5.432;2023-06-10T09:13:07;10.07;;;5.73;;
74064;SDS011;62421;51.412;5.432;2023-06-10T09:15:33;14.30;;;7.00;;
74064;SDS011;62421;51.412;5.432;2023-06-10T09:17:59;11.20;;;6.43;;
74064;SDS011;62421;51.412;5.432;2023-06-10T09:20:25;13.77;;;6.20;;
74064;SDS011;62421;51.412;5.432;2023-06-10T09:22:50;15.63;;;6.57;;
74064;SDS011;62421;51.412;5.432;2023-06-10T09:25:16;19.17;;;6.63;;
74064;SDS011;62421;51.412;5.432;2023-06-10T09:30:34;11.43;;;6.25;;
74064;SDS011;62421;51.412;5.432;2023-06-10T09:33:03;15.90;;;6.32;;
74064;SDS011;62421;51.412;5.432;2023-06-10T09:35:35;14.50;;;6.45;;
74064;SDS011;62421;51.412;5.432;2023-06-10T09:38:00;11.67;;;6.00;;
74064;SDS011;62421;51.412;5.432;2023-06-10T09:40:27;12.15;;;5.88;;
74064;SDS011;62421;51.412;5.432;2023-06-10T09:42:57;10.27;;;6.33;;
74064;SDS011;62421;51.412;5.432;2023-06-10T09:45:27;11.45;;;6.00;;
74064;SDS011;62421;51.412;5.432;2023-06-10T09:47:55;11.90;;;5.90;;
74064;SDS011;62421;51.412;5.432;2023-06-10T09:50:21;12.47;;;6.60;;
74064;SDS011;62421;51.412;5.432;2023-06-10T09:52:46;12.93;;;5.65;;
74064;SDS011;62421;51.412;5.432;2023-06-10T09:55:16;11.38;;;6.30;;
74064;SDS011;62421;51.412;5.432;2023-06-10T09:57:41;12.10;;;6.30;;
74064;SDS011;62421;51.412;5.432;2023-06-10T10:00:10;13.07;;;6.15;;
74064;SDS011;62421;51.412;5.432;2023-06-10T10:05:19;14.93;;;5.75;;
74064;SDS011;62421;51.412;5.432;2023-06-10T10:07:46;13.32;;;6.10;;
74064;SDS011;62421;51.412;5.432;2023-06-10T10:10:12;12.27;;;6.10;;
74064;SDS011;62421;51.412;5.432;2023-06-10T10:12:40;13.82;;;6.05;;
74064;SDS011;62421;51.412;5.432;2023-06-10T10:15:08;8.50;;;5.80;;
74064;SDS011;62421;51.412;5.432;2023-06-10T10:17:38;12.45;;;5.75;;
74064;SDS011;62421;51.412;5.432;2023-06-10T10:20:08;12.95;;;5.78;;
74064;SDS011;62421;51.412;5.432;2023-06-10T10:22:39;9.63;;;5.73;;
74064;SDS011;62421;51.412;5.432;2023-06-10T10:25:08;10.70;;;5.38;;
74064;SDS011;62421;51.412;5.432;2023-06-10T10:27:40;10.70;;;5.72;;
74064;SDS011;62421;51.412;5.432;2023-06-10T10:30:09;15.55;;;6.28;;
74064;SDS011;62421;51.412;5.432;2023-06-10T10:33:12;13.65;;;6.45;;
74064;SDS011;62421;51.412;5.432;2023-06-10T10:35:32;18.47;;;5.63;;
74064;SDS011;62421;51.412;5.432;2023-06-10T10:37:58;14.98;;;5.78;;
74064;SDS011;62421;51.412;5.432;2023-06-10T10:40:24;12.93;;;6.30;;
74064;SDS011;62421;51.412;5.432;2023-06-10T10:42:54;11.48;;;6.07;;
74064;SDS011;62421;51.412;5.432;2023-06-10T10:45:21;14.63;;;5.85;;
74064;SDS011;62421;51.412;5.432;2023-06-10T10:47:47;14.02;;;6.30;;
74064;SDS011;62421;51.412;5.432;2023-06-10T10:50:18;12.77;;;6.30;;
74064;SDS011;62421;51.412;5.432;2023-06-10T10:55:20;11.73;;;5.75;;
74064;SDS011;62421;51.412;5.432;2023-06-10T10:57:56;13.07;;;6.18;;
74064;SDS011;62421;51.412;5.432;2023-06-10T11:00:32;9.65;;;5.80;;
74064;SDS011;62421;51.412;5.432;2023-06-10T11:03:17;11.93;;;5.40;;
74064;SDS011;62421;51.412;5.432;2023-06-10T11:05:43;11.05;;;6.13;;
74064;SDS011;62421;51.412;5.432;2023-06-10T11:08:13;14.02;;;6.47;;
74064;SDS011;62421;51.412;5.432;2023-06-10T11:10:40;14.02;;;5.95;;
74064;SDS011;62421;51.412;5.432;2023-06-10T11:15:32;10.93;;;5.83;;
74064;SDS011;62421;51.412;5.432;2023-06-10T11:25:55;10.10;;;5.05;;
74064;SDS011;62421;51.412;5.432;2023-06-10T11:28:40;11.27;;;5.72;;
74064;SDS011;62421;51.412;5.432;2023-06-10T11:31:06;13.48;;;5.63;;
74064;SDS011;62421;51.412;5.432;2023-06-10T11:33:32;14.07;;;5.50;;
74064;SDS011;62421;51.412;5.432;2023-06-10T11:35:57;10.97;;;6.10;;
74064;SDS011;62421;51.412;5.432;2023-06-10T11:38:23;11.52;;;5.65;;
74064;SDS011;62421;51.412;5.432;2023-06-10T11:40:49;11.13;;;5.95;;
74064;SDS011;62421;51.412;5.432;2023-06-10T11:43:18;8.43;;;5.45;;
74064;SDS011;62421;51.412;5.432;2023-06-10T11:45:44;13.75;;;5.60;;
74064;SDS011;62421;51.412;5.432;2023-06-10T11:48:10;12.52;;;6.32;;
74064;SDS011;62421;51.412;5.432;2023-06-10T11:50:37;8.13;;;5.55;;
74064;SDS011;62421;51.412;5.432;2023-06-10T11:53:02;10.80;;;5.23;;
74064;SDS011;62421;51.412;5.432;2023-06-10T11:55:44;13.50;;;5.30;;
74064;SDS011;62421;51.412;5.432;2023-06-10T11:58:20;14.10;;;5.55;;
74064;SDS011;62421;51.412;5.432;2023-06-10T12:00:47;8.20;;;5.03;;
74064;SDS011;62421;51.412;5.432;2023-06-10T12:03:23;9.03;;;5.17;;
74064;SDS011;62421;51.412;5.432;2023-06-10T12:06:01;8.90;;;5.05;;
74064;SDS011;62421;51.412;5.432;2023-06-10T12:08:28;8.68;;;6.05;;
74064;SDS011;62421;51.412;5.432;2023-06-10T12:10:55;11.93;;;5.77;;
74064;SDS011;62421;51.412;5.432;2023-06-10T12:13:21;11.98;;;5.00;;
74064;SDS011;62421;51.412;5.432;2023-06-10T12:15:48;9.07;;;5.78;;
74064;SDS011;62421;51.412;5.432;2023-06-10T12:20:43;13.40;;;5.90;;
74064;SDS011;62421;51.412;5.432;2023-06-10T12:23:09;10.40;;;5.88;;
74064;SDS011;62421;51.412;5.432;2023-06-10T12:25:35;9.90;;;5.82;;
74064;SDS011;62421;51.412;5.432;2023-06-10T12:28:04;8.73;;;5.50;;
74064;SDS011;62421;51.412;5.432;2023-06-10T12:30:30;12.18;;;5.18;;
74064;SDS011;62421;51.412;5.432;2023-06-10T12:32:56;10.87;;;5.67;;
74064;SDS011;62421;51.412;5.432;2023-06-10T12:35:23;11.05;;;6.25;;
74064;SDS011;62421;51.412;5.432;2023-06-10T12:38:02;9.35;;;5.43;;
74064;SDS011;62421;51.412;5.432;2023-06-10T12:40:36;10.73;;;5.25;;
74064;SDS011;62421;51.412;5.432;2023-06-10T12:43:04;9.10;;;5.18;;
74064;SDS011;62421;51.412;5.432;2023-06-10T12:45:33;8.90;;;5.40;;
74064;SDS011;62421;51.412;5.432;2023-06-10T12:50:35;9.40;;;5.90;;
74064;SDS011;62421;51.412;5.432;2023-06-10T12:53:02;10.23;;;5.50;;
74064;SDS011;62421;51.412;5.432;2023-06-10T12:55:28;10.00;;;5.40;;
74064;SDS011;62421;51.412;5.432;2023-06-10T12:57:53;8.73;;;4.83;;
74064;SDS011;62421;51.412;5.432;2023-06-10T13:00:20;7.95;;;5.35;;
74064;SDS011;62421;51.412;5.432;2023-06-10T13:02:45;7.72;;;5.00;;
74064;SDS011;62421;51.412;5.432;2023-06-10T13:05:11;7.63;;;4.63;;
74064;SDS011;62421;51.412;5.432;2023-06-10T13:07:36;12.13;;;5.13;;
74064;SDS011;62421;51.412;5.432;2023-06-10T13:10:02;11.60;;;4.72;;
74064;SDS011;62421;51.412;5.432;2023-06-10T13:12:27;7.60;;;5.45;;
74064;SDS011;62421;51.412;5.432;2023-06-10T13:14:54;11.63;;;4.78;;
74064;SDS011;62421;51.412;5.432;2023-06-10T13:17:20;7.97;;;4.85;;
74064;SDS011;62421;51.412;5.432;2023-06-10T13:19:45;9.93;;;5.03;;
74064;SDS011;62421;51.412;5.432;2023-06-10T13:22:11;8.13;;;5.53;;
74064;SDS011;62421;51.412;5.432;2023-06-10T13:24:38;10.98;;;5.55;;
74064;SDS011;62421;51.412;5.432;2023-06-10T13:27:04;9.47;;;5.10;;
74064;SDS011;62421;51.412;5.432;2023-06-10T13:29:31;10.45;;;6.13;;
74064;SDS011;62421;51.412;5.432;2023-06-10T13:31:57;9.15;;;5.68;;
74064;SDS011;62421;51.412;5.432;2023-06-10T13:34:22;11.20;;;5.10;;
74064;SDS011;62421;51.412;5.432;2023-06-10T13:36:47;8.70;;;5.27;;
74064;SDS011;62421;51.412;5.432;2023-06-10T13:39:13;8.00;;;5.23;;
74064;SDS011;62421;51.412;5.432;2023-06-10T13:41:40;8.27;;;4.93;;
74064;SDS011;62421;51.412;5.432;2023-06-10T13:44:06;11.32;;;5.30;;
74064;SDS011;62421;51.412;5.432;2023-06-10T13:46:31;9.77;;;5.10;;
74064;SDS011;62421;51.412;5.432;2023-06-10T13:48:56;12.93;;;5.20;;
74064;SDS011;62421;51.412;5.432;2023-06-10T13:51:22;10.13;;;5.20;;
74064;SDS011;62421;51.412;5.432;2023-06-10T13:53:47;8.07;;;5.30;;
74064;SDS011;62421;51.412;5.432;2023-06-10T13:56:13;11.02;;;5.18;;
74064;SDS011;62421;51.412;5.432;2023-06-10T13:58:39;9.17;;;5.17;;
74064;SDS011;62421;51.412;5.432;2023-06-10T14:01:06;10.02;;;4.93;;
74064;SDS011;62421;51.412;5.432;2023-06-10T14:03:32;8.60;;;5.30;;
74064;SDS011;62421;51.412;5.432;2023-06-10T14:05:57;7.80;;;4.97;;
74064;SDS011;62421;51.412;5.432;2023-06-10T14:08:23;15.07;;;5.27;;
74064;SDS011;62421;51.412;5.432;2023-06-10T14:10:48;10.05;;;4.85;;
74064;SDS011;62421;51.412;5.432;2023-06-10T14:13:15;10.00;;;5.93;;
74064;SDS011;62421;51.412;5.432;2023-06-10T14:15:42;14.13;;;5.38;;
74064;SDS011;62421;51.412;5.432;2023-06-10T14:18:07;7.05;;;4.90;;
74064;SDS011;62421;51.412;5.432;2023-06-10T14:20:33;8.50;;;4.97;;
74064;SDS011;62421;51.412;5.432;2023-06-10T14:22:58;9.67;;;5.30;;
74064;SDS011;62421;51.412;5.432;2023-06-10T14:25:24;8.65;;;5.05;;
74064;SDS011;62421;51.412;5.432;2023-06-10T14:27:50;10.95;;;4.65;;
74064;SDS011;62421;51.412;5.432;2023-06-10T14:30:15;9.87;;;5.20;;
74064;SDS011;62421;51.412;5.432;2023-06-10T14:32:41;9.27;;;5.07;;
74064;SDS011;62421;51.412;5.432;2023-06-10T14:35:07;10.40;;;5.47;;
74064;SDS011;62421;51.412;5.432;2023-06-10T14:37:33;13.13;;;5.47;;
74064;SDS011;62421;51.412;5.432;2023-06-10T14:39:58;9.80;;;5.23;;
74064;SDS011;62421;51.412;5.432;2023-06-10T14:42:23;10.20;;;5.63;;
74064;SDS011;62421;51.412;5.432;2023-06-10T14:44:49;10.00;;;5.20;;
74064;SDS011;62421;51.412;5.432;2023-06-10T14:47:15;12.77;;;5.90;;
74064;SDS011;62421;51.412;5.432;2023-06-10T14:49:41;8.53;;;5.77;;
74064;SDS011;62421;51.412;5.432;2023-06-10T14:52:09;8.82;;;5.78;;
74064;SDS011;62421;51.412;5.432;2023-06-10T14:54:35;9.68;;;5.97;;
74064;SDS011;62421;51.412;5.432;2023-06-10T14:57:01;8.75;;;5.60;;
74064;SDS011;62421;51.412;5.432;2023-06-10T14:59:26;9.87;;;5.50;;